Insider Trading History of Horizon Kinetics Asset Management Llc


The following table details the trading activities (stock purchases, stock sales, and stock option exercises) reported to the Securities and Exchange Commission (SEC) by insider Horizon Kinetics Asset Management Llc since year 2005. The trader's CIK number is 1056823. At the time of the last reporting, Horizon Kinetics Asset Management Llc was the 10% Owner of Texas Pacific Land Trust . (stock ticker symbol TPL). See this page for all insider trading activities at Texas Pacific Land Trust .


Stock purchases, sales, and option exercises reported by insider Horizon Kinetics Asset Management Llc since 2005.
  Trade Date   Symbol Company Name (Issuer) Trade Type     Shares       Price ($)   Value ($)
2020-01-23 TPL Texas Pacific Land Trust Buy 135 759.00 102,465
2020-01-22 TPL Texas Pacific Land Trust Buy 139 766.80 106,585
2020-01-21 TPL Texas Pacific Land Trust Buy 135 781.94 105,561
2020-01-17 TPL Texas Pacific Land Trust Buy 142 792.86 112,586
2020-01-16 TPL Texas Pacific Land Trust Buy 150 794.90 119,235
2020-01-15 TPL Texas Pacific Land Trust Buy 150 795.92 119,388
2020-01-14 TPL Texas Pacific Land Trust Buy 150 799.45 119,917
2020-01-13 TPL Texas Pacific Land Trust Buy 150 804.90 120,735
2020-01-10 TPL Texas Pacific Land Trust Buy 150 809.28 121,392
2020-01-09 TPL Texas Pacific Land Trust Buy 150 813.19 121,978
2020-01-08 TPL Texas Pacific Land Trust Buy 150 819.37 122,905
2019-01-07 TPL Texas Pacific Land Trust Buy 10 805.00 8,050
2020-01-06 TPL Texas Pacific Land Trust Buy 10 803.50 8,035
2020-01-03 TPL Texas Pacific Land Trust Buy 10 791.55 7,915
2020-01-02 TPL Texas Pacific Land Trust Buy 10 784.50 7,845
2019-12-31 TPL Texas Pacific Land Trust Buy 8 781.22 6,249
2019-12-30 TPL Texas Pacific Land Trust Buy 8 788.34 6,306
2019-12-27 TPL Texas Pacific Land Trust Buy 8 795.04 6,360
2019-12-26 TPL Texas Pacific Land Trust Buy 41 785.22 32,194
2019-12-24 TPL Texas Pacific Land Trust Buy 41 797.01 32,677
2019-12-23 TPL Texas Pacific Land Trust Buy 41 783.70 32,131
2019-12-20 TPL Texas Pacific Land Trust Buy 41 765.92 31,402
2019-12-19 TPL Texas Pacific Land Trust Buy 41 732.03 30,013
2019-12-18 TPL Texas Pacific Land Trust Buy 41 708.12 29,032
2019-12-17 TPL Texas Pacific Land Trust Buy 257 702.99 180,668
2019-12-16 TPL Texas Pacific Land Trust Buy 47 695.05 32,667
2019-12-13 TPL Texas Pacific Land Trust Buy 40 683.86 27,354
2019-12-12 TPL Texas Pacific Land Trust Buy 40 688.00 27,520
2019-12-11 TPL Texas Pacific Land Trust Buy 40 675.02 27,000
2019-12-10 TPL Texas Pacific Land Trust Buy 40 672.19 26,887
2019-12-09 TPL Texas Pacific Land Trust Buy 40 668.94 26,757
2019-12-06 TPL Texas Pacific Land Trust Buy 33 667.55 22,029
2019-12-05 TPL Texas Pacific Land Trust Buy 40 666.40 26,656
2019-12-04 TPL Texas Pacific Land Trust Buy 33 666.64 21,999
2019-12-03 TPL Texas Pacific Land Trust Buy 33 645.61 21,305
2019-12-02 TPL Texas Pacific Land Trust Buy 37 650.00 24,050
2019-11-29 TPL Texas Pacific Land Trust Buy 33 674.98 22,274
2019-11-27 TPL Texas Pacific Land Trust Buy 33 675.99 22,307
2019-11-26 TPL Texas Pacific Land Trust Buy 37 667.20 24,686
2019-11-25 TPL Texas Pacific Land Trust Buy 33 676.00 22,308
2019-11-22 TPL Texas Pacific Land Trust Buy 26 670.00 17,420
2019-11-21 TPL Texas Pacific Land Trust Buy 26 679.21 17,659
2019-11-20 TPL Texas Pacific Land Trust Buy 46 690.18 31,748
2019-11-19 TPL Texas Pacific Land Trust Buy 25 682.64 17,066
2019-11-18 TPL Texas Pacific Land Trust Buy 25 665.05 16,626
2019-11-15 TPL Texas Pacific Land Trust Buy 109 665.00 72,485
2019-11-14 TPL Texas Pacific Land Trust Buy 108 651.01 70,309
2019-11-13 TPL Texas Pacific Land Trust Buy 23 664.37 15,280
2019-11-12 TPL Texas Pacific Land Trust Buy 33 646.75 21,342
2019-11-11 TPL Texas Pacific Land Trust Buy 51 647.54 33,024
2019-11-08 TPL Texas Pacific Land Trust Buy 28 645.00 18,060
2019-11-07 TPL Texas Pacific Land Trust Buy 9 644.49 5,800
2019-11-06 TPL Texas Pacific Land Trust Buy 9 654.49 5,890
2019-11-05 TPL Texas Pacific Land Trust Buy 9 656.48 5,908
2019-11-04 TPL Texas Pacific Land Trust Buy 9 647.83 5,830
2019-11-01 TPL Texas Pacific Land Trust Buy 496 622.78 308,898
2019-10-31 TPL Texas Pacific Land Trust Buy 9 580.21 5,221
2019-10-30 TPL Texas Pacific Land Trust Buy 14 594.46 8,322
2019-10-29 TPL Texas Pacific Land Trust Buy 9 603.62 5,432
2019-10-28 TPL Texas Pacific Land Trust Buy 9 607.00 5,463
2019-10-25 TPL Texas Pacific Land Trust Buy 9 607.73 5,469
2019-10-24 TPL Texas Pacific Land Trust Buy 9 618.70 5,568
2019-10-23 TPL Texas Pacific Land Trust Buy 9 613.70 5,523
2019-10-22 TPL Texas Pacific Land Trust Buy 9 607.72 5,469
2019-10-21 TPL Texas Pacific Land Trust Buy 9 596.85 5,371
2019-10-18 TPL Texas Pacific Land Trust Buy 9 600.03 5,400
2019-10-17 TPL Texas Pacific Land Trust Buy 9 594.31 5,348
2019-10-16 TPL Texas Pacific Land Trust Buy 9 618.50 5,566
2019-10-15 TPL Texas Pacific Land Trust Buy 9 608.46 5,476
2019-10-14 TPL Texas Pacific Land Trust Buy 9 609.45 5,485
2019-10-11 TPL Texas Pacific Land Trust Buy 9 621.50 5,593
2019-10-10 TPL Texas Pacific Land Trust Buy 7 609.46 4,266
2019-10-09 TPL Texas Pacific Land Trust Buy 7 618.50 4,329
2019-10-08 TPL Texas Pacific Land Trust Buy 7 603.10 4,221
2019-10-07 TPL Texas Pacific Land Trust Buy 7 606.25 4,243
2019-10-04 TPL Texas Pacific Land Trust Buy 5 600.03 3,000
2019-10-03 TPL Texas Pacific Land Trust Buy 5 620.87 3,104
2019-10-02 TPL Texas Pacific Land Trust Buy 5 610.98 3,054
2019-10-01 TPL Texas Pacific Land Trust Buy 10 645.35 6,453
2019-09-30 TPL Texas Pacific Land Trust Buy 5 643.24 3,216
2019-09-27 TPL Texas Pacific Land Trust Buy 5 639.70 3,198
2019-09-26 TPL Texas Pacific Land Trust Buy 5 642.55 3,212
2019-09-25 TPL Texas Pacific Land Trust Buy 5 646.31 3,231
2019-09-24 TPL Texas Pacific Land Trust Buy 5 651.51 3,257
2019-09-17 TPL Texas Pacific Land Trust Buy 43 698.31 30,027
2019-09-16 TPL Texas Pacific Land Trust Buy 49 705.71 34,579
2019-09-13 TPL Texas Pacific Land Trust Buy 49 673.78 33,015
2019-09-12 TPL Texas Pacific Land Trust Buy 49 663.00 32,487
2019-09-11 TPL Texas Pacific Land Trust Buy 49 655.86 32,137
2019-09-10 TPL Texas Pacific Land Trust Buy 49 659.40 32,310
2019-09-09 TPL Texas Pacific Land Trust Buy 49 686.90 33,658
2019-09-06 TPL Texas Pacific Land Trust Buy 49 697.48 34,176
2019-09-05 TPL Texas Pacific Land Trust Buy 49 706.50 34,618
2019-09-04 TPL Texas Pacific Land Trust Buy 49 670.27 32,843
2019-09-03 TPL Texas Pacific Land Trust Buy 49 653.89 32,040
2019-08-30 TPL Texas Pacific Land Trust Buy 49 654.60 32,075
2019-08-29 TPL Texas Pacific Land Trust Buy 54 656.10 35,429
2019-08-28 TPL Texas Pacific Land Trust Buy 49 641.58 31,437
2019-08-27 TPL Texas Pacific Land Trust Buy 49 637.50 31,237
2019-08-26 TPL Texas Pacific Land Trust Buy 49 636.08 31,167
2019-08-23 TPL Texas Pacific Land Trust Buy 49 668.39 32,751
2019-08-22 TPL Texas Pacific Land Trust Buy 49 674.50 33,050
2019-08-21 TPL Texas Pacific Land Trust Buy 49 669.37 32,799
2019-08-20 TPL Texas Pacific Land Trust Buy 49 666.50 32,658
2019-08-19 TPL Texas Pacific Land Trust Buy 49 679.36 33,288
2019-08-16 TPL Texas Pacific Land Trust Buy 49 671.46 32,901
2019-08-15 TPL Texas Pacific Land Trust Buy 49 649.73 31,836
2019-08-14 TPL Texas Pacific Land Trust Buy 188 641.00 120,508
2019-08-13 TPL Texas Pacific Land Trust Buy 49 688.78 33,750
2019-08-12 TPL Texas Pacific Land Trust Buy 49 679.65 33,302
2019-08-09 TPL Texas Pacific Land Trust Buy 49 673.70 33,011
2019-08-08 TPL Texas Pacific Land Trust Buy 49 674.39 33,045
2019-08-07 TPL Texas Pacific Land Trust Buy 49 659.12 32,296
2019-08-06 TPL Texas Pacific Land Trust Buy 49 681.00 33,369
2019-08-05 TPL Texas Pacific Land Trust Buy 49 689.76 33,798
2019-08-02 TPL Texas Pacific Land Trust Buy 49 720.23 35,291
2019-08-01 TPL Texas Pacific Land Trust Buy 49 759.85 37,232
2019-07-31 TPL Texas Pacific Land Trust Buy 49 800.00 39,200
2019-07-30 TPL Texas Pacific Land Trust Buy 49 755.49 37,019
2019-07-29 TPL Texas Pacific Land Trust Buy 49 740.50 36,284
2019-07-26 TPL Texas Pacific Land Trust Buy 49 749.50 36,725
2019-07-25 TPL Texas Pacific Land Trust Buy 49 744.49 36,480
2019-07-24 TPL Texas Pacific Land Trust Buy 49 753.12 36,902
2019-07-23 TPL Texas Pacific Land Trust Buy 49 749.44 36,722
2019-07-22 TPL Texas Pacific Land Trust Buy 49 768.84 37,673
2019-07-19 TPL Texas Pacific Land Trust Buy 49 764.50 37,460
2019-07-18 TPL Texas Pacific Land Trust Buy 49 759.50 37,215
2019-07-17 TPL Texas Pacific Land Trust Buy 157 769.49 120,809
2019-07-16 TPL Texas Pacific Land Trust Buy 49 779.61 38,200
2019-07-15 TPL Texas Pacific Land Trust Buy 49 795.00 38,955
2019-07-12 TPL Texas Pacific Land Trust Buy 49 798.15 39,109
2019-07-11 TPL Texas Pacific Land Trust Buy 49 808.89 39,635
2019-07-10 TPL Texas Pacific Land Trust Buy 50 797.58 39,879
2019-07-09 TPL Texas Pacific Land Trust Buy 50 789.73 39,486
2019-07-08 TPL Texas Pacific Land Trust Buy 50 810.20 40,510
2019-07-05 TPL Texas Pacific Land Trust Buy 50 798.67 39,933
2019-07-03 TPL Texas Pacific Land Trust Buy 50 793.74 39,687
2019-07-02 TPL Texas Pacific Land Trust Buy 50 811.04 40,552
2019-07-01 TPL Texas Pacific Land Trust Buy 50 799.99 39,999
2019-06-28 TPL Texas Pacific Land Trust Buy 50 795.24 39,762
2019-06-27 TPL Texas Pacific Land Trust Buy 50 785.98 39,299
2019-06-26 TPL Texas Pacific Land Trust Buy 50 817.18 40,859
2019-06-25 TPL Texas Pacific Land Trust Buy 50 787.20 39,360
2019-06-24 TPL Texas Pacific Land Trust Buy 50 782.12 39,106
2019-06-21 TPL Texas Pacific Land Trust Buy 50 791.07 39,553
2019-06-20 TPL Texas Pacific Land Trust Buy 50 796.72 39,836
2019-06-19 TPL Texas Pacific Land Trust Buy 50 755.88 37,794
2019-06-18 TPL Texas Pacific Land Trust Buy 50 735.09 36,754
2019-06-17 TPL Texas Pacific Land Trust Buy 50 718.96 35,948
2019-06-14 TPL Texas Pacific Land Trust Buy 50 739.99 36,999
2019-06-13 TPL Texas Pacific Land Trust Buy 50 726.13 36,306
2019-06-12 TPL Texas Pacific Land Trust Buy 50 744.22 37,211
2019-06-11 TPL Texas Pacific Land Trust Buy 50 771.11 38,555
2019-06-10 TPL Texas Pacific Land Trust Buy 50 764.77 38,238
2019-06-07 TPL Texas Pacific Land Trust Buy 50 749.91 37,495
2019-06-06 TPL Texas Pacific Land Trust Buy 175 740.80 129,639
2019-06-05 TPL Texas Pacific Land Trust Buy 50 730.07 36,503
2019-06-04 TPL Texas Pacific Land Trust Buy 50 732.78 36,639
2019-06-03 TPL Texas Pacific Land Trust Buy 50 738.78 36,939
2019-05-31 TPL Texas Pacific Land Trust Buy 50 752.07 37,603
2019-05-30 TPL Texas Pacific Land Trust Buy 50 799.00 39,950
2019-05-29 TPL Texas Pacific Land Trust Buy 50 813.21 40,660
2019-05-28 TPL Texas Pacific Land Trust Buy 50 790.32 39,516
2019-05-24 TPL Texas Pacific Land Trust Buy 50 790.09 39,504
2019-05-23 TPL Texas Pacific Land Trust Buy 36 792.09 28,515
2019-05-22 TPL Texas Pacific Land Trust Buy 36 831.23 29,924
2019-05-21 TPL Texas Pacific Land Trust Buy 36 849.48 30,581
2019-05-20 TPL Texas Pacific Land Trust Buy 36 860.09 30,963
2019-05-17 TPL Texas Pacific Land Trust Buy 36 845.42 30,435
2019-05-16 TPL Texas Pacific Land Trust Buy 36 842.57 30,332
2019-05-15 TPL Texas Pacific Land Trust Buy 36 837.84 30,162
2019-05-14 TPL Texas Pacific Land Trust Buy 36 805.73 29,006
2019-05-13 TPL Texas Pacific Land Trust Buy 36 787.20 28,339
2019-05-10 TPL Texas Pacific Land Trust Buy 36 780.78 28,108
2019-05-09 TPL Texas Pacific Land Trust Buy 36 779.99 28,079
2019-05-08 TPL Texas Pacific Land Trust Buy 36 799.98 28,799
2019-05-07 TPL Texas Pacific Land Trust Buy 36 781.21 28,123
2019-05-06 TPL Texas Pacific Land Trust Buy 36 807.23 29,060
2019-12-31 TPL Texas Pacific Land Trust Buy 8 781.22 6,249
2019-12-31 TPL Texas Pacific Land Trust Buy 8 781.22 6,249
2019-12-31 TPL Texas Pacific Land Trust Buy 8 781.22 6,249
2019-12-31 TPL Texas Pacific Land Trust Buy 8 781.22 6,249
2019-12-31 TPL Texas Pacific Land Trust Buy 8 781.22 6,249
2019-12-31 TPL Texas Pacific Land Trust Buy 8 781.22 6,249
2019-12-31 TPL Texas Pacific Land Trust Buy 8 781.22 6,249
2019-12-31 TPL Texas Pacific Land Trust Buy 8 781.22 6,249
2019-12-31 TPL Texas Pacific Land Trust Buy 8 781.22 6,249
2019-12-31 TPL Texas Pacific Land Trust Buy 8 781.22 6,249
2019-12-31 TPL Texas Pacific Land Trust Buy 8 781.22 6,249
2019-12-31 TPL Texas Pacific Land Trust Buy 8 781.22 6,249
2019-12-31 TPL Texas Pacific Land Trust Buy 8 781.22 6,249
2019-12-31 TPL Texas Pacific Land Trust Buy 8 781.22 6,249
2019-12-31 TPL Texas Pacific Land Trust Buy 8 781.22 6,249
2019-12-31 TPL Texas Pacific Land Trust Buy 8 781.22 6,249
2019-12-31 TPL Texas Pacific Land Trust Buy 8 781.22 6,249
2019-12-31 TPL Texas Pacific Land Trust Buy 8 781.22 6,249
2019-12-31 TPL Texas Pacific Land Trust Buy 8 781.22 6,249
2019-12-31 TPL Texas Pacific Land Trust Buy 8 781.22 6,249
2019-12-31 TPL Texas Pacific Land Trust Buy 8 781.22 6,249
2019-12-31 TPL Texas Pacific Land Trust Buy 8 781.22 6,249
2019-12-31 TPL Texas Pacific Land Trust Buy 8 781.22 6,249
2019-12-31 TPL Texas Pacific Land Trust Buy 8 781.22 6,249
2019-12-31 TPL Texas Pacific Land Trust Buy 8 781.22 6,249
2019-12-31 TPL Texas Pacific Land Trust Buy 8 781.22 6,249
2019-12-31 TPL Texas Pacific Land Trust Buy 8 781.22 6,249
2019-12-31 TPL Texas Pacific Land Trust Buy 8 781.22 6,249
2019-12-31 TPL Texas Pacific Land Trust Buy 8 781.22 6,249
2019-12-31 TPL Texas Pacific Land Trust Buy 8 781.22 6,249
2019-12-31 TPL Texas Pacific Land Trust Buy 8 781.22 6,249
2019-12-31 TPL Texas Pacific Land Trust Buy 8 781.22 6,249
2019-12-31 TPL Texas Pacific Land Trust Buy 8 781.22 6,249
2019-12-31 TPL Texas Pacific Land Trust Buy 8 781.22 6,249
2019-12-31 TPL Texas Pacific Land Trust Buy 8 781.22 6,249
2019-12-31 TPL Texas Pacific Land Trust Buy 8 781.22 6,249
2019-12-31 TPL Texas Pacific Land Trust Buy 8 781.22 6,249
2019-12-31 TPL Texas Pacific Land Trust Buy 8 781.22 6,249
2019-12-31 TPL Texas Pacific Land Trust Buy 8 781.22 6,249
2019-12-31 TPL Texas Pacific Land Trust Buy 8 781.22 6,249
2019-12-31 TPL Texas Pacific Land Trust Buy 8 781.22 6,249
2019-12-31 TPL Texas Pacific Land Trust Buy 8 781.22 6,249
2019-12-31 TPL Texas Pacific Land Trust Buy 8 781.22 6,249
2019-12-31 TPL Texas Pacific Land Trust Buy 8 781.22 6,249
2019-12-31 TPL Texas Pacific Land Trust Buy 8 781.22 6,249
2019-12-31 TPL Texas Pacific Land Trust Buy 8 781.22 6,249
2019-12-31 TPL Texas Pacific Land Trust Buy 8 781.22 6,249
2019-12-31 TPL Texas Pacific Land Trust Buy 8 781.22 6,249

Insider trading activities including stock purchases, stock sales, and option exercises listed in the above table cannot be completely guaranteed as to their accuracy. For more information regarding the trades made by Horizon Kinetics Asset Management Llc (10% Owner of Texas Pacific Land Trust at the time of this reporting) see the Securities and Exchange Commission (SEC) website.




Real-time Insider Trading

Insider Officer Cluster Trading

Top Officer Buys of the Week

Top Officer Buys of the Month